Monitor — WCX9104 — position and weather

sailwx.info

Track history (hours):
 
Tides and Currents Weather Stations Pressure Air Temp Water Temp Dewpoint Dewpoint Depression Visibility Wind Speed Wind Dir Waves Ship Positions

Monitor

Owner: CROWLEY PUERTO RICO SERVICES INC, Seattle, WA. More information available from US FCC via Universal Licensing System and Coast Guard Vessel Documentation Center.

Last reported at 2016-May-21 04:34 UTC. Time now 2016-Aug-25 00:56 UTC.
Position N 31°42' W 080°13'.
Warning: this ship's position is months out of date.

Length 40 m; draft 5.8 m.

Type: Towing. MMSI: 366766920.

Date/timePositionNaut miles runAvg speedWind from/ knotsBaromVisibWave heightAir tempDewpointWater temp
2016-May-21 04:34N 31°42' W 080°13'  
2016-May-17 18:28N 39°00' W 075°09'9 9.4
2016-May-17 17:32N 39°08' W 075°14'1110.8
2016-May-17 16:33N 39°17' W 075°21'1110.9
2016-May-17 15:33N 39°25' W 075°31'9 9.1
2016-May-17 14:34N 39°34' W 075°33'7 7.4
2016-May-17 13:33N 39°41' W 075°31'7 7.5
2016-May-17 12:34N 39°48' W 075°26'7 6.8
2016-May-17 11:33N 39°51' W 075°18'6 5.8
2016-May-17 10:31N 39°53' W 075°11'0 0.0
2016-May-17 09:31N 39°53' W 075°11'0 0.0
2016-May-17 08:31N 39°53' W 075°11'0 0.0
2016-May-17 07:31N 39°53' W 075°11'0 0.0
2016-May-17 06:28N 39°53' W 075°11'0 0.0
2016-May-17 05:28N 39°53' W 075°11'0 0.0
2016-May-17 04:31N 39°53' W 075°11'0 0.0
2016-May-17 03:31N 39°53' W 075°11'0 0.0
2016-May-17 02:31N 39°53' W 075°11'0 0.0
2016-May-17 01:33N 39°53' W 075°11'0 0.0
2016-May-17 00:31N 39°53' W 075°11'0 0.0
2016-May-16 23:31N 39°53' W 075°11'0 0.0
2016-May-16 22:31N 39°53' W 075°11'0 0.0
2016-May-16 21:31N 39°53' W 075°11'0 0.0
2016-May-16 20:31N 39°53' W 075°11'0 0.0
2016-May-16 19:31N 39°53' W 075°11'0 0.0
2016-May-16 18:31N 39°53' W 075°11'0 0.0
2016-May-16 17:32N 39°53' W 075°11'0 0.0
2016-May-16 16:31N 39°53' W 075°11'0 0.0
2016-May-16 15:31N 39°53' W 075°11'0 0.0
2016-May-16 14:31N 39°53' W 075°11'0 0.0
2016-May-16 13:31N 39°53' W 075°11'0 0.0
2016-May-16 12:31N 39°53' W 075°11'0 0.0
2016-May-16 11:32N 39°53' W 075°11'0 0.0
2016-May-16 10:32N 39°53' W 075°11'0 0.0
2016-May-16 09:32N 39°53' W 075°11'0 0.0
2016-May-16 08:32N 39°53' W 075°11'0 0.0
2016-May-16 07:26N 39°53' W 075°11'0 0.0
2016-May-16 06:32N 39°53' W 075°11'0 0.0
2016-May-16 05:32N 39°53' W 075°11'0 0.0
2016-May-16 04:29N 39°53' W 075°11'0 0.0
2016-May-16 03:29N 39°53' W 075°11'0 0.0
2016-May-16 02:32N 39°53' W 075°11'0 0.0
2016-May-16 01:29N 39°53' W 075°11'0 0.0
2016-May-16 00:32N 39°53' W 075°11'0 0.0
2016-May-15 23:32N 39°53' W 075°11'0 0.0
2016-May-15 22:29N 39°53' W 075°11'0 0.0
2016-May-15 21:17N 39°53' W 075°11'0 0.0
2016-May-15 20:20N 39°53' W 075°11'0 0.0
2016-May-15 19:26N 39°53' W 075°11'0 0.0
2016-May-15 18:26N 39°53' W 075°11'0 0.0
2016-May-15 17:32N 39°53' W 075°11'0 0.0
2016-May-15 16:33N 39°53' W 075°11'0 0.0
2016-May-15 15:24N 39°53' W 075°11'0 0.0
2016-May-15 14:29N 39°53' W 075°11'0 0.1
2016-May-15 13:32N 39°53' W 075°11'0 0.1
2016-May-15 12:32N 39°53' W 075°11'0 0.0
2016-May-15 11:32N 39°53' W 075°11'0 0.0
2016-May-15 10:32N 39°53' W 075°11'0 0.0
2016-May-15 09:32N 39°53' W 075°11'2 1.9
2016-May-15 08:34N 39°52' W 075°13'1110.6
2016-May-15 07:33N 39°48' W 075°26'1111.5
2016-May-15 06:33N 39°38' W 075°34'1111.3
2016-May-15 05:34N 39°27' W 075°33'1111.4
2016-May-15 04:33N 39°19' W 075°23'1211.6
2016-May-15 03:33N 39°09' W 075°15'  
Track history (hours):
 
Tides and Currents Weather Stations Pressure Air Temp Water Temp Dewpoint Dewpoint Depression Visibility Wind Speed Wind Dir Waves Ship Positions

Monitor

Owner: CROWLEY PUERTO RICO SERVICES INC, Seattle, WA. More information available from US FCC via Universal Licensing System and Coast Guard Vessel Documentation Center.

Last reported at 2016-May-21 04:34 UTC. Time now 2016-Aug-25 00:56 UTC.
Position N 31°42' W 080°13'.
Warning: this ship's position is months out of date.

Length 40 m; draft 5.8 m.

Type: Towing. MMSI: 366766920.

Date/timePositionNaut miles runAvg speedWind from/ knotsBaromVisibWave heightAir tempDewpointWater temp
2016-May-21 04:34N 31°42' W 080°13'  
2016-May-17 18:28N 39°00' W 075°09'9 9.4
2016-May-17 17:32N 39°08' W 075°14'1110.8
2016-May-17 16:33N 39°17' W 075°21'1110.9
2016-May-17 15:33N 39°25' W 075°31'9 9.1
2016-May-17 14:34N 39°34' W 075°33'7 7.4
2016-May-17 13:33N 39°41' W 075°31'7 7.5
2016-May-17 12:34N 39°48' W 075°26'7 6.8
2016-May-17 11:33N 39°51' W 075°18'6 5.8
2016-May-17 10:31N 39°53' W 075°11'0 0.0
2016-May-17 09:31N 39°53' W 075°11'0 0.0
2016-May-17 08:31N 39°53' W 075°11'0 0.0
2016-May-17 07:31N 39°53' W 075°11'0 0.0
2016-May-17 06:28N 39°53' W 075°11'0 0.0
2016-May-17 05:28N 39°53' W 075°11'0 0.0
2016-May-17 04:31N 39°53' W 075°11'0 0.0
2016-May-17 03:31N 39°53' W 075°11'0 0.0
2016-May-17 02:31N 39°53' W 075°11'0 0.0
2016-May-17 01:33N 39°53' W 075°11'0 0.0
2016-May-17 00:31N 39°53' W 075°11'0 0.0
2016-May-16 23:31N 39°53' W 075°11'0 0.0
2016-May-16 22:31N 39°53' W 075°11'0 0.0
2016-May-16 21:31N 39°53' W 075°11'0 0.0
2016-May-16 20:31N 39°53' W 075°11'0 0.0
2016-May-16 19:31N 39°53' W 075°11'0 0.0
2016-May-16 18:31N 39°53' W 075°11'0 0.0
2016-May-16 17:32N 39°53' W 075°11'0 0.0
2016-May-16 16:31N 39°53' W 075°11'0 0.0
2016-May-16 15:31N 39°53' W 075°11'0 0.0
2016-May-16 14:31N 39°53' W 075°11'0 0.0
2016-May-16 13:31N 39°53' W 075°11'0 0.0
2016-May-16 12:31N 39°53' W 075°11'0 0.0
2016-May-16 11:32N 39°53' W 075°11'0 0.0
2016-May-16 10:32N 39°53' W 075°11'0 0.0
2016-May-16 09:32N 39°53' W 075°11'0 0.0
2016-May-16 08:32N 39°53' W 075°11'0 0.0
2016-May-16 07:26N 39°53' W 075°11'0 0.0
2016-May-16 06:32N 39°53' W 075°11'0 0.0
2016-May-16 05:32N 39°53' W 075°11'0 0.0
2016-May-16 04:29N 39°53' W 075°11'0 0.0
2016-May-16 03:29N 39°53' W 075°11'0 0.0
2016-May-16 02:32N 39°53' W 075°11'0 0.0
2016-May-16 01:29N 39°53' W 075°11'0 0.0
2016-May-16 00:32N 39°53' W 075°11'0 0.0
2016-May-15 23:32N 39°53' W 075°11'0 0.0
2016-May-15 22:29N 39°53' W 075°11'0 0.0
2016-May-15 21:17N 39°53' W 075°11'0 0.0
2016-May-15 20:20N 39°53' W 075°11'0 0.0
2016-May-15 19:26N 39°53' W 075°11'0 0.0
2016-May-15 18:26N 39°53' W 075°11'0 0.0
2016-May-15 17:32N 39°53' W 075°11'0 0.0
2016-May-15 16:33N 39°53' W 075°11'0 0.0
2016-May-15 15:24N 39°53' W 075°11'0 0.0
2016-May-15 14:29N 39°53' W 075°11'0 0.1
2016-May-15 13:32N 39°53' W 075°11'0 0.1
2016-May-15 12:32N 39°53' W 075°11'0 0.0
2016-May-15 11:32N 39°53' W 075°11'0 0.0
2016-May-15 10:32N 39°53' W 075°11'0 0.0
2016-May-15 09:32N 39°53' W 075°11'2 1.9
2016-May-15 08:34N 39°52' W 075°13'1110.6
2016-May-15 07:33N 39°48' W 075°26'1111.5
2016-May-15 06:33N 39°38' W 075°34'1111.3
2016-May-15 05:34N 39°27' W 075°33'1111.4
2016-May-15 04:33N 39°19' W 075°23'1211.6
2016-May-15 03:33N 39°09' W 075°15'  

Dump ship's entire track history